首页
METAR-TAF:

METAR-TAF

机场 :

Frenchville, 缅因州, 美国

纬度: 47-17-06N, 经度: 068-18-26W, 海拔: 301米

当前天气观测

该预报发布于1小时和25分钟前的21:53 UTC
风速5节,风向南转西南
温度 27°C
湿度 62%
气压 1006 hPa
能見度: 16.1公里
天空无云

METAR: KFVE 152153Z AUTO 21005KT 10SM CLR 27/19 A2972 RMK AO2 SLP057 T02670189

时间: 19:18 (23:18 UTC)

预报

该预报发布于5小时和58分钟前的17:20 UTC
预报有效从15日的 18点(UTC)到 16日的 18点(UTC)
风速10节,风向西南,有时为20节阵风
能見度: 10公里
多云层高于5000英尺
从 15日的 1900点(UTC)
风速10节,风向西南,有时为18节阵风
能見度: 10公里
多云层高于5000英尺
附近有阵雨
从 15日的 2200点(UTC)
风速8节,风向西南
能見度: 10公里
散云层高于25000英尺
从 16日的 1300点(UTC)
风速5节,风向南转西南
能見度: 10公里
多云层高于8000英尺
附近有阵雨,

TAF: KFVE 151720Z 1518/1618 22010G20KT P6SM BKN050 FM151900 22010G18KT P6SM VCSH BKN050 FM152200 22008KT P6SM SCT250 FM161300 21005KT P6SM VCSH BKN080

超过4000个机场的气象观测和天气预报(METAR&TAF报告)。

可查询的气象台以黄色和红色小点在地图上表示。

将鼠标移到小点上方,可查看气象台名称。

然后点击查看天气观测和预报。

如需切换地图:点击带黑十字的绿色按钮放大地图;点击带横线的绿色按钮缩小地图;或者点击绿色箭头查看邻近地区的地图。


METAR-TAF: